sensor_id;sensor_type;location;lat;lon;timestamp;P1;durP1;ratioP1;P2;durP2;ratioP2
17038;SDS011;8636;55.750;13.202;2024-01-10T00:01:47;0.00;;;0.00;;
17038;SDS011;8636;55.750;13.202;2024-01-10T00:04:21;0.00;;;0.00;;
17038;SDS011;8636;55.750;13.202;2024-01-10T00:07:03;0.00;;;0.00;;
17038;SDS011;8636;55.750;13.202;2024-01-10T00:09:38;0.00;;;0.00;;
17038;SDS011;8636;55.750;13.202;2024-01-10T00:12:06;0.00;;;0.00;;
17038;SDS011;8636;55.750;13.202;2024-01-10T00:14:42;0.00;;;0.00;;
17038;SDS011;8636;55.750;13.202;2024-01-10T00:17:10;0.00;;;0.00;;
17038;SDS011;8636;55.750;13.202;2024-01-10T00:19:45;0.00;;;0.00;;
17038;SDS011;8636;55.750;13.202;2024-01-10T00:22:13;0.00;;;0.00;;
17038;SDS011;8636;55.750;13.202;2024-01-10T00:24:48;0.00;;;0.00;;
17038;SDS011;8636;55.750;13.202;2024-01-10T00:27:16;0.00;;;0.00;;
17038;SDS011;8636;55.750;13.202;2024-01-10T00:29:51;0.00;;;0.00;;
17038;SDS011;8636;55.750;13.202;2024-01-10T00:32:19;0.00;;;0.00;;
17038;SDS011;8636;55.750;13.202;2024-01-10T00:34:54;0.00;;;0.00;;
17038;SDS011;8636;55.750;13.202;2024-01-10T00:37:22;0.00;;;0.00;;
17038;SDS011;8636;55.750;13.202;2024-01-10T00:39:57;0.00;;;0.00;;
17038;SDS011;8636;55.750;13.202;2024-01-10T00:42:25;0.00;;;0.00;;
17038;SDS011;8636;55.750;13.202;2024-01-10T00:45:00;0.00;;;0.00;;
17038;SDS011;8636;55.750;13.202;2024-01-10T00:47:28;0.00;;;0.00;;
17038;SDS011;8636;55.750;13.202;2024-01-10T00:50:03;0.00;;;0.00;;
17038;SDS011;8636;55.750;13.202;2024-01-10T00:52:32;0.00;;;0.00;;
17038;SDS011;8636;55.750;13.202;2024-01-10T00:55:07;0.00;;;0.00;;
17038;SDS011;8636;55.750;13.202;2024-01-10T00:57:35;0.00;;;0.00;;
17038;SDS011;8636;55.750;13.202;2024-01-10T01:00:13;0.00;;;0.00;;
17038;SDS011;8636;55.750;13.202;2024-01-10T01:02:42;0.00;;;0.00;;
17038;SDS011;8636;55.750;13.202;2024-01-10T01:05:17;0.00;;;0.00;;
17038;SDS011;8636;55.750;13.202;2024-01-10T01:07:52;0.00;;;0.00;;
17038;SDS011;8636;55.750;13.202;2024-01-10T01:10:27;0.00;;;0.00;;
17038;SDS011;8636;55.750;13.202;2024-01-10T01:12:55;0.00;;;0.00;;
17038;SDS011;8636;55.750;13.202;2024-01-10T01:15:30;0.00;;;0.00;;
17038;SDS011;8636;55.750;13.202;2024-01-10T01:17:58;0.00;;;0.00;;
17038;SDS011;8636;55.750;13.202;2024-01-10T01:20:33;0.00;;;0.00;;
17038;SDS011;8636;55.750;13.202;2024-01-10T01:23:01;0.00;;;0.00;;
17038;SDS011;8636;55.750;13.202;2024-01-10T01:25:36;0.00;;;0.00;;
17038;SDS011;8636;55.750;13.202;2024-01-10T01:28:04;0.00;;;0.00;;
17038;SDS011;8636;55.750;13.202;2024-01-10T01:30:40;0.00;;;0.00;;
17038;SDS011;8636;55.750;13.202;2024-01-10T01:33:08;0.00;;;0.00;;
17038;SDS011;8636;55.750;13.202;2024-01-10T01:35:43;0.00;;;0.00;;
17038;SDS011;8636;55.750;13.202;2024-01-10T01:38:11;0.00;;;0.00;;
17038;SDS011;8636;55.750;13.202;2024-01-10T01:40:45;0.00;;;0.00;;
17038;SDS011;8636;55.750;13.202;2024-01-10T01:43:19;0.00;;;0.00;;
17038;SDS011;8636;55.750;13.202;2024-01-10T01:45:56;0.00;;;0.00;;
17038;SDS011;8636;55.750;13.202;2024-01-10T01:48:24;0.00;;;0.00;;
17038;SDS011;8636;55.750;13.202;2024-01-10T01:51:00;0.00;;;0.00;;
17038;SDS011;8636;55.750;13.202;2024-01-10T01:53:29;0.00;;;0.00;;
17038;SDS011;8636;55.750;13.202;2024-01-10T01:56:05;0.00;;;0.00;;
17038;SDS011;8636;55.750;13.202;2024-01-10T01:58:35;0.00;;;0.00;;
17038;SDS011;8636;55.750;13.202;2024-01-10T02:03:55;0.00;;;0.00;;
17038;SDS011;8636;55.750;13.202;2024-01-10T02:06:30;0.00;;;0.00;;
17038;SDS011;8636;55.750;13.202;2024-01-10T02:08:58;0.00;;;0.00;;
17038;SDS011;8636;55.750;13.202;2024-01-10T02:11:33;0.00;;;0.00;;
17038;SDS011;8636;55.750;13.202;2024-01-10T02:14:00;0.00;;;0.00;;
17038;SDS011;8636;55.750;13.202;2024-01-10T02:16:35;0.00;;;0.00;;
17038;SDS011;8636;55.750;13.202;2024-01-10T02:19:18;0.00;;;0.00;;
17038;SDS011;8636;55.750;13.202;2024-01-10T02:21:53;0.00;;;0.00;;
17038;SDS011;8636;55.750;13.202;2024-01-10T02:24:22;0.00;;;0.00;;
17038;SDS011;8636;55.750;13.202;2024-01-10T02:26:58;0.00;;;0.00;;
17038;SDS011;8636;55.750;13.202;2024-01-10T02:29:26;0.00;;;0.00;;
17038;SDS011;8636;55.750;13.202;2024-01-10T02:32:01;0.00;;;0.00;;
17038;SDS011;8636;55.750;13.202;2024-01-10T02:34:29;0.00;;;0.00;;
17038;SDS011;8636;55.750;13.202;2024-01-10T02:37:04;0.00;;;0.00;;
17038;SDS011;8636;55.750;13.202;2024-01-10T02:39:32;0.00;;;0.00;;
17038;SDS011;8636;55.750;13.202;2024-01-10T02:42:07;0.00;;;0.00;;
17038;SDS011;8636;55.750;13.202;2024-01-10T02:44:35;0.00;;;0.00;;
17038;SDS011;8636;55.750;13.202;2024-01-10T02:47:09;0.00;;;0.00;;
17038;SDS011;8636;55.750;13.202;2024-01-10T02:49:38;0.00;;;0.00;;
17038;SDS011;8636;55.750;13.202;2024-01-10T02:52:13;0.00;;;0.00;;
17038;SDS011;8636;55.750;13.202;2024-01-10T02:54:41;0.00;;;0.00;;
17038;SDS011;8636;55.750;13.202;2024-01-10T02:57:16;0.00;;;0.00;;
17038;SDS011;8636;55.750;13.202;2024-01-10T02:59:44;0.00;;;0.00;;
17038;SDS011;8636;55.750;13.202;2024-01-10T03:02:19;0.00;;;0.00;;
17038;SDS011;8636;55.750;13.202;2024-01-10T03:04:53;0.00;;;0.00;;
17038;SDS011;8636;55.750;13.202;2024-01-10T03:07:28;0.00;;;0.00;;
17038;SDS011;8636;55.750;13.202;2024-01-10T03:09:56;0.00;;;0.00;;
17038;SDS011;8636;55.750;13.202;2024-01-10T03:12:33;0.00;;;0.00;;
17038;SDS011;8636;55.750;13.202;2024-01-10T03:15:04;0.00;;;0.00;;
17038;SDS011;8636;55.750;13.202;2024-01-10T03:17:40;0.00;;;0.00;;
17038;SDS011;8636;55.750;13.202;2024-01-10T03:20:08;0.00;;;0.00;;
17038;SDS011;8636;55.750;13.202;2024-01-10T03:22:43;0.00;;;0.00;;
17038;SDS011;8636;55.750;13.202;2024-01-10T03:25:11;0.00;;;0.00;;
17038;SDS011;8636;55.750;13.202;2024-01-10T03:27:46;0.00;;;0.00;;
17038;SDS011;8636;55.750;13.202;2024-01-10T03:30:14;0.00;;;0.00;;
17038;SDS011;8636;55.750;13.202;2024-01-10T03:32:51;0.00;;;0.00;;
17038;SDS011;8636;55.750;13.202;2024-01-10T03:35:19;0.00;;;0.00;;
17038;SDS011;8636;55.750;13.202;2024-01-10T03:37:53;0.00;;;0.00;;
17038;SDS011;8636;55.750;13.202;2024-01-10T03:40:21;0.00;;;0.00;;
17038;SDS011;8636;55.750;13.202;2024-01-10T03:42:57;0.00;;;0.00;;
17038;SDS011;8636;55.750;13.202;2024-01-10T03:45:25;0.00;;;0.00;;
17038;SDS011;8636;55.750;13.202;2024-01-10T03:48:01;0.00;;;0.00;;
17038;SDS011;8636;55.750;13.202;2024-01-10T03:50:29;0.00;;;0.00;;
17038;SDS011;8636;55.750;13.202;2024-01-10T03:53:03;0.00;;;0.00;;
17038;SDS011;8636;55.750;13.202;2024-01-10T03:55:31;0.00;;;0.00;;
17038;SDS011;8636;55.750;13.202;2024-01-10T03:58:07;0.00;;;0.00;;
17038;SDS011;8636;55.750;13.202;2024-01-10T04:00:35;0.00;;;0.00;;
17038;SDS011;8636;55.750;13.202;2024-01-10T04:03:16;0.00;;;0.00;;
17038;SDS011;8636;55.750;13.202;2024-01-10T04:05:44;0.00;;;0.00;;
17038;SDS011;8636;55.750;13.202;2024-01-10T04:08:19;0.00;;;0.00;;
17038;SDS011;8636;55.750;13.202;2024-01-10T04:10:47;0.00;;;0.00;;
17038;SDS011;8636;55.750;13.202;2024-01-10T04:13:22;0.00;;;0.00;;
17038;SDS011;8636;55.750;13.202;2024-01-10T04:15:50;0.00;;;0.00;;
17038;SDS011;8636;55.750;13.202;2024-01-10T04:18:25;0.00;;;0.00;;
17038;SDS011;8636;55.750;13.202;2024-01-10T04:20:53;0.00;;;0.00;;
17038;SDS011;8636;55.750;13.202;2024-01-10T04:23:28;0.00;;;0.00;;
17038;SDS011;8636;55.750;13.202;2024-01-10T04:25:57;0.00;;;0.00;;
17038;SDS011;8636;55.750;13.202;2024-01-10T04:28:32;0.00;;;0.00;;
17038;SDS011;8636;55.750;13.202;2024-01-10T04:31:00;0.00;;;0.00;;
17038;SDS011;8636;55.750;13.202;2024-01-10T04:33:35;0.00;;;0.00;;
17038;SDS011;8636;55.750;13.202;2024-01-10T04:36:03;0.00;;;0.00;;
17038;SDS011;8636;55.750;13.202;2024-01-10T04:38:31;0.00;;;0.00;;
17038;SDS011;8636;55.750;13.202;2024-01-10T04:41:06;0.00;;;0.00;;
17038;SDS011;8636;55.750;13.202;2024-01-10T04:43:35;0.00;;;0.00;;
17038;SDS011;8636;55.750;13.202;2024-01-10T04:46:10;0.00;;;0.00;;
17038;SDS011;8636;55.750;13.202;2024-01-10T04:48:38;0.00;;;0.00;;
17038;SDS011;8636;55.750;13.202;2024-01-10T04:51:12;0.00;;;0.00;;
17038;SDS011;8636;55.750;13.202;2024-01-10T04:53:40;0.00;;;0.00;;
17038;SDS011;8636;55.750;13.202;2024-01-10T04:56:15;0.00;;;0.00;;
17038;SDS011;8636;55.750;13.202;2024-01-10T04:58:44;0.00;;;0.00;;
17038;SDS011;8636;55.750;13.202;2024-01-10T05:01:19;0.00;;;0.00;;
17038;SDS011;8636;55.750;13.202;2024-01-10T05:03:47;0.00;;;0.00;;
17038;SDS011;8636;55.750;13.202;2024-01-10T05:06:21;0.00;;;0.00;;
17038;SDS011;8636;55.750;13.202;2024-01-10T05:08:49;0.00;;;0.00;;
17038;SDS011;8636;55.750;13.202;2024-01-10T05:11:24;0.00;;;0.00;;
17038;SDS011;8636;55.750;13.202;2024-01-10T05:13:54;0.00;;;0.00;;
17038;SDS011;8636;55.750;13.202;2024-01-10T05:16:29;0.00;;;0.00;;
17038;SDS011;8636;55.750;13.202;2024-01-10T05:18:57;0.00;;;0.00;;
17038;SDS011;8636;55.750;13.202;2024-01-10T05:21:35;0.00;;;0.00;;
17038;SDS011;8636;55.750;13.202;2024-01-10T05:24:03;0.00;;;0.00;;
17038;SDS011;8636;55.750;13.202;2024-01-10T05:26:38;0.00;;;0.00;;
17038;SDS011;8636;55.750;13.202;2024-01-10T05:29:07;0.00;;;0.00;;
17038;SDS011;8636;55.750;13.202;2024-01-10T05:31:42;0.00;;;0.00;;
17038;SDS011;8636;55.750;13.202;2024-01-10T05:34:10;0.00;;;0.00;;
17038;SDS011;8636;55.750;13.202;2024-01-10T05:36:45;0.00;;;0.00;;
17038;SDS011;8636;55.750;13.202;2024-01-10T05:39:13;0.00;;;0.00;;
17038;SDS011;8636;55.750;13.202;2024-01-10T05:41:49;0.00;;;0.00;;
17038;SDS011;8636;55.750;13.202;2024-01-10T05:44:18;0.00;;;0.00;;
17038;SDS011;8636;55.750;13.202;2024-01-10T05:46:53;0.00;;;0.00;;
17038;SDS011;8636;55.750;13.202;2024-01-10T05:49:21;0.00;;;0.00;;
17038;SDS011;8636;55.750;13.202;2024-01-10T05:51:55;0.00;;;0.00;;
17038;SDS011;8636;55.750;13.202;2024-01-10T05:54:23;0.00;;;0.00;;
17038;SDS011;8636;55.750;13.202;2024-01-10T05:56:57;0.00;;;0.00;;
17038;SDS011;8636;55.750;13.202;2024-01-10T05:59:28;0.00;;;0.00;;
17038;SDS011;8636;55.750;13.202;2024-01-10T06:02:03;0.00;;;0.00;;
17038;SDS011;8636;55.750;13.202;2024-01-10T06:04:44;0.00;;;0.00;;
17038;SDS011;8636;55.750;13.202;2024-01-10T06:07:18;0.00;;;0.00;;
17038;SDS011;8636;55.750;13.202;2024-01-10T06:09:47;0.00;;;0.00;;
17038;SDS011;8636;55.750;13.202;2024-01-10T06:12:21;0.00;;;0.00;;
17038;SDS011;8636;55.750;13.202;2024-01-10T06:14:50;0.00;;;0.00;;
17038;SDS011;8636;55.750;13.202;2024-01-10T06:17:25;0.00;;;0.00;;
17038;SDS011;8636;55.750;13.202;2024-01-10T06:19:53;0.00;;;0.00;;
17038;SDS011;8636;55.750;13.202;2024-01-10T06:22:27;0.00;;;0.00;;
17038;SDS011;8636;55.750;13.202;2024-01-10T06:24:56;0.00;;;0.00;;
17038;SDS011;8636;55.750;13.202;2024-01-10T06:27:30;0.00;;;0.00;;
17038;SDS011;8636;55.750;13.202;2024-01-10T06:29:59;0.00;;;0.00;;
17038;SDS011;8636;55.750;13.202;2024-01-10T06:32:34;0.00;;;0.00;;
17038;SDS011;8636;55.750;13.202;2024-01-10T06:35:02;0.00;;;0.00;;
17038;SDS011;8636;55.750;13.202;2024-01-10T06:37:37;0.00;;;0.00;;
17038;SDS011;8636;55.750;13.202;2024-01-10T06:40:06;0.00;;;0.00;;
17038;SDS011;8636;55.750;13.202;2024-01-10T06:42:42;0.00;;;0.00;;
17038;SDS011;8636;55.750;13.202;2024-01-10T06:45:11;0.00;;;0.00;;
17038;SDS011;8636;55.750;13.202;2024-01-10T06:47:53;0.00;;;0.00;;
17038;SDS011;8636;55.750;13.202;2024-01-10T06:50:21;0.00;;;0.00;;
17038;SDS011;8636;55.750;13.202;2024-01-10T06:52:56;0.00;;;0.00;;
17038;SDS011;8636;55.750;13.202;2024-01-10T06:55:31;0.00;;;0.00;;
17038;SDS011;8636;55.750;13.202;2024-01-10T06:58:05;0.00;;;0.00;;
17038;SDS011;8636;55.750;13.202;2024-01-10T07:00:34;0.00;;;0.00;;
17038;SDS011;8636;55.750;13.202;2024-01-10T07:03:11;0.00;;;0.00;;
17038;SDS011;8636;55.750;13.202;2024-01-10T07:05:52;0.00;;;0.00;;
17038;SDS011;8636;55.750;13.202;2024-01-10T07:08:26;0.00;;;0.00;;
17038;SDS011;8636;55.750;13.202;2024-01-10T07:10:54;0.00;;;0.00;;
17038;SDS011;8636;55.750;13.202;2024-01-10T07:13:29;0.00;;;0.00;;
17038;SDS011;8636;55.750;13.202;2024-01-10T07:15:59;0.00;;;0.00;;
17038;SDS011;8636;55.750;13.202;2024-01-10T07:18:35;0.00;;;0.00;;
17038;SDS011;8636;55.750;13.202;2024-01-10T07:21:03;0.00;;;0.00;;
17038;SDS011;8636;55.750;13.202;2024-01-10T07:23:38;0.00;;;0.00;;
17038;SDS011;8636;55.750;13.202;2024-01-10T07:26:09;0.00;;;0.00;;
17038;SDS011;8636;55.750;13.202;2024-01-10T07:28:43;0.20;;;0.20;;
17038;SDS011;8636;55.750;13.202;2024-01-10T07:31:12;0.17;;;0.13;;
17038;SDS011;8636;55.750;13.202;2024-01-10T07:33:47;0.30;;;0.30;;
17038;SDS011;8636;55.750;13.202;2024-01-10T07:36:15;0.10;;;0.00;;
17038;SDS011;8636;55.750;13.202;2024-01-10T07:38:50;0.10;;;0.10;;
17038;SDS011;8636;55.750;13.202;2024-01-10T07:41:18;0.10;;;0.07;;
17038;SDS011;8636;55.750;13.202;2024-01-10T07:43:53;0.10;;;0.10;;
17038;SDS011;8636;55.750;13.202;2024-01-10T07:46:22;0.30;;;0.10;;
17038;SDS011;8636;55.750;13.202;2024-01-10T07:48:57;0.10;;;0.10;;
17038;SDS011;8636;55.750;13.202;2024-01-10T07:51:26;0.17;;;0.10;;
17038;SDS011;8636;55.750;13.202;2024-01-10T07:54:01;0.10;;;0.10;;
17038;SDS011;8636;55.750;13.202;2024-01-10T07:56:28;0.33;;;0.23;;
17038;SDS011;8636;55.750;13.202;2024-01-10T07:59:04;0.20;;;0.20;;
17038;SDS011;8636;55.750;13.202;2024-01-10T08:01:33;0.20;;;0.20;;
17038;SDS011;8636;55.750;13.202;2024-01-10T08:04:08;0.10;;;0.10;;
17038;SDS011;8636;55.750;13.202;2024-01-10T08:06:42;0.10;;;0.10;;
17038;SDS011;8636;55.750;13.202;2024-01-10T08:09:17;0.20;;;0.10;;
17038;SDS011;8636;55.750;13.202;2024-01-10T08:11:46;0.30;;;0.30;;
17038;SDS011;8636;55.750;13.202;2024-01-10T08:14:21;0.10;;;0.00;;
17038;SDS011;8636;55.750;13.202;2024-01-10T08:16:50;0.20;;;0.20;;
17038;SDS011;8636;55.750;13.202;2024-01-10T08:19:26;0.13;;;0.13;;
17038;SDS011;8636;55.750;13.202;2024-01-10T08:21:54;0.13;;;0.03;;
17038;SDS011;8636;55.750;13.202;2024-01-10T08:24:29;0.27;;;0.20;;
17038;SDS011;8636;55.750;13.202;2024-01-10T08:26:57;0.20;;;0.20;;
17038;SDS011;8636;55.750;13.202;2024-01-10T08:29:31;0.23;;;0.20;;
17038;SDS011;8636;55.750;13.202;2024-01-10T08:32:00;0.30;;;0.30;;
17038;SDS011;8636;55.750;13.202;2024-01-10T08:34:36;0.20;;;0.20;;
17038;SDS011;8636;55.750;13.202;2024-01-10T08:37:04;0.20;;;0.20;;
17038;SDS011;8636;55.750;13.202;2024-01-10T08:39:39;0.20;;;0.20;;
17038;SDS011;8636;55.750;13.202;2024-01-10T08:42:09;0.30;;;0.30;;
17038;SDS011;8636;55.750;13.202;2024-01-10T08:44:44;0.30;;;0.23;;
17038;SDS011;8636;55.750;13.202;2024-01-10T08:47:13;0.17;;;0.10;;
17038;SDS011;8636;55.750;13.202;2024-01-10T08:49:48;0.30;;;0.30;;
17038;SDS011;8636;55.750;13.202;2024-01-10T08:52:16;0.23;;;0.13;;
17038;SDS011;8636;55.750;13.202;2024-01-10T08:54:51;0.17;;;0.10;;
17038;SDS011;8636;55.750;13.202;2024-01-10T08:57:19;0.20;;;0.20;;
17038;SDS011;8636;55.750;13.202;2024-01-10T08:59:53;0.23;;;0.23;;
17038;SDS011;8636;55.750;13.202;2024-01-10T09:02:22;0.40;;;0.20;;
17038;SDS011;8636;55.750;13.202;2024-01-10T09:05:04;0.30;;;0.30;;
17038;SDS011;8636;55.750;13.202;2024-01-10T09:07:34;0.10;;;0.10;;
17038;SDS011;8636;55.750;13.202;2024-01-10T09:10:08;0.30;;;0.20;;
17038;SDS011;8636;55.750;13.202;2024-01-10T09:12:36;0.40;;;0.30;;
17038;SDS011;8636;55.750;13.202;2024-01-10T09:15:16;0.20;;;0.20;;
17038;SDS011;8636;55.750;13.202;2024-01-10T09:17:45;0.20;;;0.20;;
17038;SDS011;8636;55.750;13.202;2024-01-10T09:20:20;0.17;;;0.10;;
17038;SDS011;8636;55.750;13.202;2024-01-10T09:22:48;0.20;;;0.20;;
17038;SDS011;8636;55.750;13.202;2024-01-10T09:25:23;0.20;;;0.20;;
17038;SDS011;8636;55.750;13.202;2024-01-10T09:27:51;0.20;;;0.20;;
17038;SDS011;8636;55.750;13.202;2024-01-10T09:30:25;0.20;;;0.20;;
17038;SDS011;8636;55.750;13.202;2024-01-10T09:32:54;0.40;;;0.40;;
17038;SDS011;8636;55.750;13.202;2024-01-10T09:35:29;0.20;;;0.10;;
17038;SDS011;8636;55.750;13.202;2024-01-10T09:37:57;0.10;;;0.10;;
17038;SDS011;8636;55.750;13.202;2024-01-10T09:40:33;0.13;;;0.10;;
17038;SDS011;8636;55.750;13.202;2024-01-10T09:43:01;0.13;;;0.10;;
17038;SDS011;8636;55.750;13.202;2024-01-10T09:45:36;0.10;;;0.10;;
17038;SDS011;8636;55.750;13.202;2024-01-10T09:48:14;0.20;;;0.20;;
17038;SDS011;8636;55.750;13.202;2024-01-10T09:50:49;0.20;;;0.20;;
17038;SDS011;8636;55.750;13.202;2024-01-10T09:53:21;0.20;;;0.17;;
17038;SDS011;8636;55.750;13.202;2024-01-10T09:55:57;0.27;;;0.13;;
17038;SDS011;8636;55.750;13.202;2024-01-10T09:58:27;0.23;;;0.23;;
17038;SDS011;8636;55.750;13.202;2024-01-10T10:01:02;0.23;;;0.20;;
17038;SDS011;8636;55.750;13.202;2024-01-10T10:03:33;0.33;;;0.30;;
17038;SDS011;8636;55.750;13.202;2024-01-10T10:06:33;0.10;;;0.10;;
17038;SDS011;8636;55.750;13.202;2024-01-10T10:09:14;0.20;;;0.20;;
17038;SDS011;8636;55.750;13.202;2024-01-10T10:11:53;0.20;;;0.20;;
17038;SDS011;8636;55.750;13.202;2024-01-10T10:14:21;0.20;;;0.20;;
17038;SDS011;8636;55.750;13.202;2024-01-10T10:16:56;0.30;;;0.30;;
17038;SDS011;8636;55.750;13.202;2024-01-10T10:19:41;0.20;;;0.10;;
17038;SDS011;8636;55.750;13.202;2024-01-10T10:22:17;0.20;;;0.20;;
17038;SDS011;8636;55.750;13.202;2024-01-10T10:24:47;0.30;;;0.30;;
17038;SDS011;8636;55.750;13.202;2024-01-10T10:27:22;0.33;;;0.30;;
17038;SDS011;8636;55.750;13.202;2024-01-10T10:29:50;0.20;;;0.20;;
17038;SDS011;8636;55.750;13.202;2024-01-10T10:32:24;0.33;;;0.20;;
17038;SDS011;8636;55.750;13.202;2024-01-10T10:34:55;0.20;;;0.20;;
17038;SDS011;8636;55.750;13.202;2024-01-10T10:37:30;0.30;;;0.30;;
17038;SDS011;8636;55.750;13.202;2024-01-10T10:39:58;0.30;;;0.27;;
17038;SDS011;8636;55.750;13.202;2024-01-10T10:42:32;0.30;;;0.30;;
17038;SDS011;8636;55.750;13.202;2024-01-10T10:45:02;0.50;;;0.40;;
17038;SDS011;8636;55.750;13.202;2024-01-10T10:47:37;0.20;;;0.20;;
17038;SDS011;8636;55.750;13.202;2024-01-10T10:50:13;0.30;;;0.30;;
17038;SDS011;8636;55.750;13.202;2024-01-10T10:52:54;0.27;;;0.20;;
17038;SDS011;8636;55.750;13.202;2024-01-10T10:55:22;0.20;;;0.20;;
17038;SDS011;8636;55.750;13.202;2024-01-10T10:58:00;0.27;;;0.20;;
17038;SDS011;8636;55.750;13.202;2024-01-10T11:00:37;0.20;;;0.20;;
17038;SDS011;8636;55.750;13.202;2024-01-10T11:03:20;0.20;;;0.20;;
17038;SDS011;8636;55.750;13.202;2024-01-10T11:06:04;0.53;;;0.50;;
17038;SDS011;8636;55.750;13.202;2024-01-10T11:08:40;0.27;;;0.27;;
17038;SDS011;8636;55.750;13.202;2024-01-10T11:11:14;0.37;;;0.37;;
17038;SDS011;8636;55.750;13.202;2024-01-10T11:14:09;0.20;;;0.20;;
17038;SDS011;8636;55.750;13.202;2024-01-10T11:16:56;0.13;;;0.13;;
17038;SDS011;8636;55.750;13.202;2024-01-10T11:23:14;0.20;;;0.20;;
17038;SDS011;8636;55.750;13.202;2024-01-10T11:26:06;0.40;;;0.30;;
17038;SDS011;8636;55.750;13.202;2024-01-10T11:28:41;0.20;;;0.20;;
17038;SDS011;8636;55.750;13.202;2024-01-10T11:31:09;0.27;;;0.27;;
17038;SDS011;8636;55.750;13.202;2024-01-10T11:33:45;0.20;;;0.20;;
17038;SDS011;8636;55.750;13.202;2024-01-10T11:36:16;0.30;;;0.30;;
17038;SDS011;8636;55.750;13.202;2024-01-10T11:38:57;0.10;;;0.10;;
17038;SDS011;8636;55.750;13.202;2024-01-10T11:41:29;0.53;;;0.27;;
17038;SDS011;8636;55.750;13.202;2024-01-10T11:46:53;0.20;;;0.20;;
17038;SDS011;8636;55.750;13.202;2024-01-10T11:49:28;0.10;;;0.10;;
17038;SDS011;8636;55.750;13.202;2024-01-10T11:51:57;0.10;;;0.10;;
17038;SDS011;8636;55.750;13.202;2024-01-10T11:54:41;0.10;;;0.10;;
17038;SDS011;8636;55.750;13.202;2024-01-10T11:57:21;0.10;;;0.10;;
17038;SDS011;8636;55.750;13.202;2024-01-10T11:59:57;0.10;;;0.10;;
17038;SDS011;8636;55.750;13.202;2024-01-10T12:02:27;0.20;;;0.20;;
17038;SDS011;8636;55.750;13.202;2024-01-10T12:05:10;0.10;;;0.10;;
17038;SDS011;8636;55.750;13.202;2024-01-10T12:07:38;0.20;;;0.10;;
17038;SDS011;8636;55.750;13.202;2024-01-10T12:10:15;0.10;;;0.10;;
17038;SDS011;8636;55.750;13.202;2024-01-10T12:12:43;0.10;;;0.10;;
17038;SDS011;8636;55.750;13.202;2024-01-10T12:15:21;0.10;;;0.10;;
17038;SDS011;8636;55.750;13.202;2024-01-10T12:17:50;0.10;;;0.10;;
17038;SDS011;8636;55.750;13.202;2024-01-10T12:20:25;0.10;;;0.10;;
17038;SDS011;8636;55.750;13.202;2024-01-10T12:22:55;0.30;;;0.20;;
17038;SDS011;8636;55.750;13.202;2024-01-10T12:25:31;0.20;;;0.10;;
17038;SDS011;8636;55.750;13.202;2024-01-10T12:28:01;0.00;;;0.00;;
17038;SDS011;8636;55.750;13.202;2024-01-10T12:30:35;0.20;;;0.10;;
17038;SDS011;8636;55.750;13.202;2024-01-10T12:33:03;0.10;;;0.10;;
17038;SDS011;8636;55.750;13.202;2024-01-10T12:35:38;0.10;;;0.10;;
17038;SDS011;8636;55.750;13.202;2024-01-10T12:38:10;0.00;;;0.00;;
17038;SDS011;8636;55.750;13.202;2024-01-10T12:40:45;0.10;;;0.07;;
17038;SDS011;8636;55.750;13.202;2024-01-10T12:43:13;0.00;;;0.00;;
17038;SDS011;8636;55.750;13.202;2024-01-10T12:45:48;0.00;;;0.00;;
17038;SDS011;8636;55.750;13.202;2024-01-10T12:48:29;0.00;;;0.00;;
17038;SDS011;8636;55.750;13.202;2024-01-10T12:51:04;0.07;;;0.07;;
17038;SDS011;8636;55.750;13.202;2024-01-10T12:53:33;0.20;;;0.20;;
17038;SDS011;8636;55.750;13.202;2024-01-10T12:56:10;0.17;;;0.10;;
17038;SDS011;8636;55.750;13.202;2024-01-10T12:58:41;0.00;;;0.00;;
17038;SDS011;8636;55.750;13.202;2024-01-10T13:01:15;0.00;;;0.00;;
17038;SDS011;8636;55.750;13.202;2024-01-10T13:03:43;0.00;;;0.00;;
17038;SDS011;8636;55.750;13.202;2024-01-10T13:06:18;0.00;;;0.00;;
17038;SDS011;8636;55.750;13.202;2024-01-10T13:08:54;0.10;;;0.00;;
17038;SDS011;8636;55.750;13.202;2024-01-10T13:11:31;0.00;;;0.00;;
17038;SDS011;8636;55.750;13.202;2024-01-10T13:13:58;0.00;;;0.00;;
17038;SDS011;8636;55.750;13.202;2024-01-10T13:16:33;0.10;;;0.10;;
17038;SDS011;8636;55.750;13.202;2024-01-10T13:19:14;0.00;;;0.00;;
17038;SDS011;8636;55.750;13.202;2024-01-10T13:21:48;0.00;;;0.00;;
17038;SDS011;8636;55.750;13.202;2024-01-10T13:24:16;0.00;;;0.00;;
17038;SDS011;8636;55.750;13.202;2024-01-10T13:26:51;0.10;;;0.10;;
17038;SDS011;8636;55.750;13.202;2024-01-10T13:29:19;0.00;;;0.00;;
17038;SDS011;8636;55.750;13.202;2024-01-10T13:31:54;0.10;;;0.10;;
17038;SDS011;8636;55.750;13.202;2024-01-10T13:34:22;0.00;;;0.00;;
17038;SDS011;8636;55.750;13.202;2024-01-10T13:36:57;0.00;;;0.00;;
17038;SDS011;8636;55.750;13.202;2024-01-10T13:39:25;0.10;;;0.10;;
17038;SDS011;8636;55.750;13.202;2024-01-10T13:42:00;0.10;;;0.10;;
17038;SDS011;8636;55.750;13.202;2024-01-10T13:44:28;0.10;;;0.10;;
17038;SDS011;8636;55.750;13.202;2024-01-10T13:47:03;0.20;;;0.10;;
17038;SDS011;8636;55.750;13.202;2024-01-10T13:49:31;0.33;;;0.20;;
17038;SDS011;8636;55.750;13.202;2024-01-10T13:52:06;0.30;;;0.30;;
17038;SDS011;8636;55.750;13.202;2024-01-10T13:54:34;0.20;;;0.10;;
17038;SDS011;8636;55.750;13.202;2024-01-10T13:57:10;0.20;;;0.20;;
17038;SDS011;8636;55.750;13.202;2024-01-10T13:59:38;0.20;;;0.20;;
17038;SDS011;8636;55.750;13.202;2024-01-10T14:02:14;0.37;;;0.20;;
17038;SDS011;8636;55.750;13.202;2024-01-10T14:04:51;0.20;;;0.20;;
17038;SDS011;8636;55.750;13.202;2024-01-10T14:07:27;0.40;;;0.30;;
17038;SDS011;8636;55.750;13.202;2024-01-10T14:09:55;0.50;;;0.50;;
17038;SDS011;8636;55.750;13.202;2024-01-10T14:12:32;0.47;;;0.40;;
17038;SDS011;8636;55.750;13.202;2024-01-10T14:15:00;0.40;;;0.30;;
17038;SDS011;8636;55.750;13.202;2024-01-10T14:17:35;0.50;;;0.40;;
17038;SDS011;8636;55.750;13.202;2024-01-10T14:20:03;0.30;;;0.30;;
17038;SDS011;8636;55.750;13.202;2024-01-10T14:22:41;0.40;;;0.40;;
17038;SDS011;8636;55.750;13.202;2024-01-10T14:25:09;0.50;;;0.50;;
17038;SDS011;8636;55.750;13.202;2024-01-10T14:27:44;0.37;;;0.37;;
17038;SDS011;8636;55.750;13.202;2024-01-10T14:30:12;0.40;;;0.40;;
17038;SDS011;8636;55.750;13.202;2024-01-10T14:32:48;0.30;;;0.30;;
17038;SDS011;8636;55.750;13.202;2024-01-10T14:35:16;0.47;;;0.47;;
17038;SDS011;8636;55.750;13.202;2024-01-10T14:37:51;0.30;;;0.30;;
17038;SDS011;8636;55.750;13.202;2024-01-10T14:40:20;0.33;;;0.30;;
17038;SDS011;8636;55.750;13.202;2024-01-10T14:42:57;0.40;;;0.40;;
17038;SDS011;8636;55.750;13.202;2024-01-10T14:45:25;0.20;;;0.20;;
17038;SDS011;8636;55.750;13.202;2024-01-10T14:48:00;0.20;;;0.20;;
17038;SDS011;8636;55.750;13.202;2024-01-10T14:50:29;0.47;;;0.37;;
17038;SDS011;8636;55.750;13.202;2024-01-10T14:53:04;0.40;;;0.30;;
17038;SDS011;8636;55.750;13.202;2024-01-10T14:55:32;0.57;;;0.40;;
17038;SDS011;8636;55.750;13.202;2024-01-10T14:58:09;0.20;;;0.20;;
17038;SDS011;8636;55.750;13.202;2024-01-10T15:00:37;0.30;;;0.30;;
17038;SDS011;8636;55.750;13.202;2024-01-10T15:03:14;0.33;;;0.30;;
17038;SDS011;8636;55.750;13.202;2024-01-10T15:05:52;0.30;;;0.30;;
17038;SDS011;8636;55.750;13.202;2024-01-10T15:08:27;0.20;;;0.20;;
17038;SDS011;8636;55.750;13.202;2024-01-10T15:10:56;0.20;;;0.20;;
17038;SDS011;8636;55.750;13.202;2024-01-10T15:13:31;0.50;;;0.47;;
17038;SDS011;8636;55.750;13.202;2024-01-10T15:16:00;0.30;;;0.30;;
17038;SDS011;8636;55.750;13.202;2024-01-10T15:18:35;0.60;;;0.40;;
17038;SDS011;8636;55.750;13.202;2024-01-10T15:21:03;0.30;;;0.30;;
17038;SDS011;8636;55.750;13.202;2024-01-10T15:23:39;0.27;;;0.27;;
17038;SDS011;8636;55.750;13.202;2024-01-10T15:26:07;0.20;;;0.20;;
17038;SDS011;8636;55.750;13.202;2024-01-10T15:28:43;0.10;;;0.10;;
17038;SDS011;8636;55.750;13.202;2024-01-10T15:31:14;0.20;;;0.20;;